sensor_id;sensor_type;location;lat;lon;timestamp;pressure;altitude;pressure_sealevel;temperature;humidity
35151;BME280;55720;51.972;4.624;2023-02-14T00:00:17;103824.94;;;0.90;100.00
35151;BME280;55720;51.972;4.624;2023-02-14T00:02:42;103818.88;;;0.88;100.00
35151;BME280;55720;51.972;4.624;2023-02-14T00:05:07;103812.84;;;0.86;100.00
35151;BME280;55720;51.972;4.624;2023-02-14T00:07:33;103816.94;;;0.82;100.00
35151;BME280;55720;51.972;4.624;2023-02-14T00:09:58;103812.13;;;0.77;100.00
35151;BME280;55720;51.972;4.624;2023-02-14T00:12:24;103808.56;;;0.77;100.00
35151;BME280;55720;51.972;4.624;2023-02-14T00:14:49;103815.03;;;0.76;100.00
35151;BME280;55720;51.972;4.624;2023-02-14T00:17:33;103812.50;;;0.74;100.00
35151;BME280;55720;51.972;4.624;2023-02-14T00:19:58;103804.78;;;0.71;100.00
35151;BME280;55720;51.972;4.624;2023-02-14T00:22:23;103800.81;;;0.67;100.00
35151;BME280;55720;51.972;4.624;2023-02-14T00:24:49;103791.78;;;0.60;100.00
35151;BME280;55720;51.972;4.624;2023-02-14T00:27:14;103758.25;;;0.55;100.00
35151;BME280;55720;51.972;4.624;2023-02-14T00:29:40;103772.38;;;0.50;100.00
35151;BME280;55720;51.972;4.624;2023-02-14T00:32:05;103783.56;;;0.47;100.00
35151;BME280;55720;51.972;4.624;2023-02-14T00:34:30;103795.41;;;0.46;100.00
35151;BME280;55720;51.972;4.624;2023-02-14T00:36:57;103779.38;;;0.44;100.00
35151;BME280;55720;51.972;4.624;2023-02-14T00:39:23;103784.59;;;0.46;100.00
35151;BME280;55720;51.972;4.624;2023-02-14T00:41:48;103787.81;;;0.56;100.00
35151;BME280;55720;51.972;4.624;2023-02-14T00:44:14;103785.47;;;0.74;100.00
35151;BME280;55720;51.972;4.624;2023-02-14T00:46:39;103757.06;;;1.54;100.00
35151;BME280;55720;51.972;4.624;2023-02-14T00:49:05;103755.41;;;1.18;100.00
35151;BME280;55720;51.972;4.624;2023-02-14T00:51:30;103744.50;;;1.05;100.00
35151;BME280;55720;51.972;4.624;2023-02-14T00:53:56;103749.28;;;1.03;100.00
35151;BME280;55720;51.972;4.624;2023-02-14T00:56:21;103745.06;;;0.94;100.00
35151;BME280;55720;51.972;4.624;2023-02-14T00:58:47;103745.66;;;0.89;100.00
35151;BME280;55720;51.972;4.624;2023-02-14T01:01:14;103733.94;;;0.82;100.00
35151;BME280;55720;51.972;4.624;2023-02-14T01:03:39;103738.91;;;0.79;100.00
35151;BME280;55720;51.972;4.624;2023-02-14T01:06:05;103729.06;;;0.71;100.00
35151;BME280;55720;51.972;4.624;2023-02-14T01:08:31;103737.78;;;0.67;100.00
35151;BME280;55720;51.972;4.624;2023-02-14T01:11:17;103725.50;;;0.64;100.00
35151;BME280;55720;51.972;4.624;2023-02-14T01:13:43;103736.03;;;0.59;100.00
35151;BME280;55720;51.972;4.624;2023-02-14T01:16:11;103731.59;;;0.52;100.00
35151;BME280;55720;51.972;4.624;2023-02-14T01:18:37;103732.00;;;0.48;100.00
35151;BME280;55720;51.972;4.624;2023-02-14T01:21:30;103729.13;;;0.50;100.00
35151;BME280;55720;51.972;4.624;2023-02-14T01:23:58;103727.47;;;0.56;100.00
35151;BME280;55720;51.972;4.624;2023-02-14T01:26:25;103723.94;;;0.55;100.00
35151;BME280;55720;51.972;4.624;2023-02-14T01:28:51;103723.50;;;0.52;100.00
35151;BME280;55720;51.972;4.624;2023-02-14T01:31:19;103718.50;;;0.48;100.00
35151;BME280;55720;51.972;4.624;2023-02-14T01:33:47;103719.28;;;0.42;100.00
35151;BME280;55720;51.972;4.624;2023-02-14T01:36:21;103728.22;;;0.43;100.00
35151;BME280;55720;51.972;4.624;2023-02-14T01:38:51;103718.44;;;0.42;100.00
35151;BME280;55720;51.972;4.624;2023-02-14T01:41:16;103715.28;;;0.38;100.00
35151;BME280;55720;51.972;4.624;2023-02-14T01:44:03;103722.50;;;0.31;100.00
35151;BME280;55720;51.972;4.624;2023-02-14T01:46:32;103709.16;;;0.30;100.00
35151;BME280;55720;51.972;4.624;2023-02-14T01:49:11;103700.81;;;0.25;100.00
35151;BME280;55720;51.972;4.624;2023-02-14T01:51:44;103700.16;;;0.23;100.00
35151;BME280;55720;51.972;4.624;2023-02-14T01:54:11;103703.97;;;0.28;100.00
35151;BME280;55720;51.972;4.624;2023-02-14T01:56:43;103713.50;;;0.24;100.00
35151;BME280;55720;51.972;4.624;2023-02-14T01:59:12;103718.00;;;0.17;100.00
35151;BME280;55720;51.972;4.624;2023-02-14T02:01:39;103722.94;;;0.14;100.00
35151;BME280;55720;51.972;4.624;2023-02-14T02:04:14;103726.41;;;0.08;100.00
35151;BME280;55720;51.972;4.624;2023-02-14T02:06:45;103730.53;;;0.04;100.00
35151;BME280;55720;51.972;4.624;2023-02-14T02:09:15;103735.50;;;0.00;100.00
35151;BME280;55720;51.972;4.624;2023-02-14T02:11:42;103732.06;;;-0.09;100.00
35151;BME280;55720;51.972;4.624;2023-02-14T02:14:18;103725.38;;;-0.13;100.00
35151;BME280;55720;51.972;4.624;2023-02-14T02:16:57;103725.47;;;-0.21;100.00
35151;BME280;55720;51.972;4.624;2023-02-14T02:36:17;103720.16;;;-0.14;100.00
35151;BME280;55720;51.972;4.624;2023-02-14T02:38:59;103724.16;;;-0.10;100.00
35151;BME280;55720;51.972;4.624;2023-02-14T02:52:37;103702.03;;;-0.20;100.00
35151;BME280;55720;51.972;4.624;2023-02-14T02:55:43;103704.50;;;-0.04;100.00
35151;BME280;55720;51.972;4.624;2023-02-14T02:58:44;103704.78;;;0.08;100.00
35151;BME280;55720;51.972;4.624;2023-02-14T03:01:14;103697.75;;;0.07;100.00
35151;BME280;55720;51.972;4.624;2023-02-14T03:03:45;103690.78;;;-0.03;100.00
35151;BME280;55720;51.972;4.624;2023-02-14T03:06:30;103692.47;;;-0.02;100.00
35151;BME280;55720;51.972;4.624;2023-02-14T03:08:56;103690.22;;;0.02;100.00
35151;BME280;55720;51.972;4.624;2023-02-14T03:11:22;103693.75;;;0.03;100.00
35151;BME280;55720;51.972;4.624;2023-02-14T03:14:07;103688.34;;;0.03;100.00
35151;BME280;55720;51.972;4.624;2023-02-14T03:17:06;103682.00;;;0.38;100.00
35151;BME280;55720;51.972;4.624;2023-02-14T03:19:46;103674.41;;;0.48;100.00
35151;BME280;55720;51.972;4.624;2023-02-14T03:22:43;103650.31;;;0.87;100.00
35151;BME280;55720;51.972;4.624;2023-02-14T03:28:23;103628.34;;;0.63;100.00
35151;BME280;55720;51.972;4.624;2023-02-14T03:31:01;103560.72;;;0.56;100.00
35151;BME280;55720;51.972;4.624;2023-02-14T03:36:05;103631.03;;;0.63;100.00
35151;BME280;55720;51.972;4.624;2023-02-14T03:41:06;103614.59;;;0.58;100.00
35151;BME280;55720;51.972;4.624;2023-02-14T03:43:47;103610.31;;;0.42;100.00
35151;BME280;55720;51.972;4.624;2023-02-14T03:46:21;103612.59;;;0.38;100.00
35151;BME280;55720;51.972;4.624;2023-02-14T03:48:51;103622.06;;;0.28;100.00
35151;BME280;55720;51.972;4.624;2023-02-14T03:51:19;103616.34;;;0.16;100.00
35151;BME280;55720;51.972;4.624;2023-02-14T03:53:50;103613.59;;;0.10;100.00
35151;BME280;55720;51.972;4.624;2023-02-14T03:56:45;103612.50;;;0.04;100.00
35151;BME280;55720;51.972;4.624;2023-02-14T03:59:17;103621.00;;;0.01;100.00
35151;BME280;55720;51.972;4.624;2023-02-14T04:02:17;103627.59;;;-0.08;100.00
35151;BME280;55720;51.972;4.624;2023-02-14T04:04:45;103628.53;;;-0.16;100.00
35151;BME280;55720;51.972;4.624;2023-02-14T04:07:15;103629.31;;;-0.22;100.00
35151;BME280;55720;51.972;4.624;2023-02-14T04:09:41;103630.75;;;-0.26;100.00
35151;BME280;55720;51.972;4.624;2023-02-14T04:12:07;103628.84;;;-0.25;100.00
35151;BME280;55720;51.972;4.624;2023-02-14T04:14:33;103635.47;;;-0.28;100.00
35151;BME280;55720;51.972;4.624;2023-02-14T04:16:58;103629.22;;;-0.28;100.00
35151;BME280;55720;51.972;4.624;2023-02-14T04:19:42;103632.38;;;-0.25;100.00
35151;BME280;55720;51.972;4.624;2023-02-14T04:22:08;103591.03;;;-0.25;100.00
35151;BME280;55720;51.972;4.624;2023-02-14T04:24:33;103577.72;;;-0.33;100.00
35151;BME280;55720;51.972;4.624;2023-02-14T04:26:58;103565.63;;;-0.37;100.00
35151;BME280;55720;51.972;4.624;2023-02-14T04:29:50;103576.22;;;-0.36;100.00
35151;BME280;55720;51.972;4.624;2023-02-14T04:32:19;103594.13;;;-0.28;100.00
35151;BME280;55720;51.972;4.624;2023-02-14T04:34:44;103621.78;;;-0.26;100.00
35151;BME280;55720;51.972;4.624;2023-02-14T04:37:10;103619.53;;;-0.23;100.00
35151;BME280;55720;51.972;4.624;2023-02-14T04:39:36;103632.09;;;-0.15;100.00
35151;BME280;55720;51.972;4.624;2023-02-14T04:42:02;103608.88;;;0.18;100.00
35151;BME280;55720;51.972;4.624;2023-02-14T04:44:28;103599.47;;;0.35;100.00
35151;BME280;55720;51.972;4.624;2023-02-14T04:46:54;103597.78;;;0.34;100.00
35151;BME280;55720;51.972;4.624;2023-02-14T04:49:19;103589.66;;;0.28;100.00
35151;BME280;55720;51.972;4.624;2023-02-14T04:51:45;103585.84;;;0.22;100.00
35151;BME280;55720;51.972;4.624;2023-02-14T04:54:10;103578.34;;;0.18;100.00
35151;BME280;55720;51.972;4.624;2023-02-14T04:56:36;103577.38;;;0.25;100.00
35151;BME280;55720;51.972;4.624;2023-02-14T04:59:02;103574.00;;;0.23;100.00
35151;BME280;55720;51.972;4.624;2023-02-14T05:01:27;103567.72;;;0.16;100.00
35151;BME280;55720;51.972;4.624;2023-02-14T05:03:53;103567.91;;;0.15;100.00
35151;BME280;55720;51.972;4.624;2023-02-14T05:06:18;103564.78;;;0.11;100.00
35151;BME280;55720;51.972;4.624;2023-02-14T05:08:44;103567.44;;;0.05;100.00
35151;BME280;55720;51.972;4.624;2023-02-14T05:11:09;103561.13;;;-0.03;100.00
35151;BME280;55720;51.972;4.624;2023-02-14T05:13:35;103554.66;;;-0.08;100.00
35151;BME280;55720;51.972;4.624;2023-02-14T05:16:08;103555.81;;;-0.17;100.00
35151;BME280;55720;51.972;4.624;2023-02-14T05:18:36;103556.44;;;-0.22;100.00
35151;BME280;55720;51.972;4.624;2023-02-14T05:21:05;103552.63;;;-0.27;100.00
35151;BME280;55720;51.972;4.624;2023-02-14T05:23:30;103550.72;;;-0.33;100.00
35151;BME280;55720;51.972;4.624;2023-02-14T05:25:56;103562.25;;;-0.39;100.00
35151;BME280;55720;51.972;4.624;2023-02-14T05:28:22;103552.50;;;-0.40;100.00
35151;BME280;55720;51.972;4.624;2023-02-14T05:30:49;103545.63;;;-0.43;100.00
35151;BME280;55720;51.972;4.624;2023-02-14T05:33:15;103548.91;;;-0.47;100.00
35151;BME280;55720;51.972;4.624;2023-02-14T05:35:44;103520.66;;;-0.52;100.00
35151;BME280;55720;51.972;4.624;2023-02-14T05:38:23;103539.91;;;-0.55;100.00
35151;BME280;55720;51.972;4.624;2023-02-14T05:40:48;103545.06;;;-0.60;100.00
35151;BME280;55720;51.972;4.624;2023-02-14T05:43:14;103540.28;;;-0.58;100.00
35151;BME280;55720;51.972;4.624;2023-02-14T05:45:39;103540.28;;;-0.58;100.00
35151;BME280;55720;51.972;4.624;2023-02-14T05:48:05;103536.50;;;-0.63;100.00
35151;BME280;55720;51.972;4.624;2023-02-14T05:50:31;103535.22;;;-0.67;100.00
35151;BME280;55720;51.972;4.624;2023-02-14T05:52:56;103531.63;;;-0.74;100.00
35151;BME280;55720;51.972;4.624;2023-02-14T05:55:25;103528.78;;;-0.87;100.00
35151;BME280;55720;51.972;4.624;2023-02-14T05:57:53;103525.25;;;-0.88;100.00
35151;BME280;55720;51.972;4.624;2023-02-14T06:00:22;103524.88;;;-0.85;100.00
35151;BME280;55720;51.972;4.624;2023-02-14T06:02:56;103523.28;;;-0.94;100.00
35151;BME280;55720;51.972;4.624;2023-02-14T06:05:27;103513.09;;;-0.98;100.00
35151;BME280;55720;51.972;4.624;2023-02-14T06:07:56;103518.69;;;-1.00;100.00
35151;BME280;55720;51.972;4.624;2023-02-14T06:10:27;103520.75;;;-1.02;100.00
35151;BME280;55720;51.972;4.624;2023-02-14T06:13:02;103521.44;;;-0.93;100.00
35151;BME280;55720;51.972;4.624;2023-02-14T06:15:35;103506.63;;;-0.83;100.00
35151;BME280;55720;51.972;4.624;2023-02-14T06:18:05;103489.81;;;-0.85;100.00
35151;BME280;55720;51.972;4.624;2023-02-14T06:20:31;103494.03;;;-0.76;100.00
35151;BME280;55720;51.972;4.624;2023-02-14T06:22:57;103501.16;;;-0.68;100.00
35151;BME280;55720;51.972;4.624;2023-02-14T06:25:26;103497.56;;;-0.75;100.00
35151;BME280;55720;51.972;4.624;2023-02-14T06:28:04;103494.56;;;-0.66;100.00
35151;BME280;55720;51.972;4.624;2023-02-14T06:30:32;103489.41;;;-0.61;100.00
35151;BME280;55720;51.972;4.624;2023-02-14T06:32:58;103488.38;;;-0.60;100.00
35151;BME280;55720;51.972;4.624;2023-02-14T06:35:24;103483.31;;;-0.48;100.00
35151;BME280;55720;51.972;4.624;2023-02-14T06:38:12;103486.31;;;-0.58;100.00
35151;BME280;55720;51.972;4.624;2023-02-14T06:40:44;103488.72;;;-0.20;100.00
35151;BME280;55720;51.972;4.624;2023-02-14T06:43:12;103483.50;;;-0.50;100.00
35151;BME280;55720;51.972;4.624;2023-02-14T06:45:41;103491.47;;;-0.63;100.00
35151;BME280;55720;51.972;4.624;2023-02-14T06:48:08;103494.69;;;-0.74;100.00
35151;BME280;55720;51.972;4.624;2023-02-14T06:50:39;103493.78;;;-0.81;100.00
35151;BME280;55720;51.972;4.624;2023-02-14T06:53:13;103479.00;;;-0.85;100.00
35151;BME280;55720;51.972;4.624;2023-02-14T06:55:44;103494.09;;;-0.90;100.00
35151;BME280;55720;51.972;4.624;2023-02-14T06:58:13;103495.88;;;-0.98;100.00
35151;BME280;55720;51.972;4.624;2023-02-14T07:00:45;103494.69;;;-0.95;100.00
35151;BME280;55720;51.972;4.624;2023-02-14T07:03:10;103492.69;;;-0.86;100.00
35151;BME280;55720;51.972;4.624;2023-02-14T07:05:36;103487.81;;;-0.76;100.00
35151;BME280;55720;51.972;4.624;2023-02-14T07:08:05;103490.69;;;-0.78;100.00
35151;BME280;55720;51.972;4.624;2023-02-14T07:10:32;103492.94;;;-0.81;100.00
35151;BME280;55720;51.972;4.624;2023-02-14T07:13:01;103492.56;;;-0.78;100.00
35151;BME280;55720;51.972;4.624;2023-02-14T07:15:33;103486.78;;;-0.75;100.00
35151;BME280;55720;51.972;4.624;2023-02-14T07:18:01;103480.81;;;-0.71;100.00
35151;BME280;55720;51.972;4.624;2023-02-14T07:20:27;103480.19;;;-0.73;100.00
35151;BME280;55720;51.972;4.624;2023-02-14T07:22:55;103481.19;;;-0.74;100.00
35151;BME280;55720;51.972;4.624;2023-02-14T07:25:21;103475.59;;;-0.72;100.00
35151;BME280;55720;51.972;4.624;2023-02-14T07:27:46;103476.88;;;-0.68;100.00
35151;BME280;55720;51.972;4.624;2023-02-14T07:30:13;103473.44;;;-0.62;100.00
35151;BME280;55720;51.972;4.624;2023-02-14T07:32:39;103468.94;;;-0.55;100.00
35151;BME280;55720;51.972;4.624;2023-02-14T07:35:06;103470.66;;;-0.47;100.00
35151;BME280;55720;51.972;4.624;2023-02-14T07:37:36;103480.53;;;-0.33;100.00
35151;BME280;55720;51.972;4.624;2023-02-14T07:40:02;103470.41;;;-0.25;100.00
35151;BME280;55720;51.972;4.624;2023-02-14T07:42:28;103469.41;;;-0.17;100.00
35151;BME280;55720;51.972;4.624;2023-02-14T07:44:56;103480.91;;;-0.09;100.00
35151;BME280;55720;51.972;4.624;2023-02-14T07:47:25;103477.66;;;0.03;100.00
35151;BME280;55720;51.972;4.624;2023-02-14T07:49:50;103475.25;;;0.14;100.00
35151;BME280;55720;51.972;4.624;2023-02-14T07:52:16;103466.59;;;0.25;100.00
35151;BME280;55720;51.972;4.624;2023-02-14T07:54:41;103462.25;;;0.37;100.00
35151;BME280;55720;51.972;4.624;2023-02-14T07:57:07;103454.50;;;0.69;100.00
35151;BME280;55720;51.972;4.624;2023-02-14T07:59:35;103434.88;;;1.40;100.00
35151;BME280;55720;51.972;4.624;2023-02-14T08:02:01;103247.28;;;3.03;100.00
35151;BME280;55720;51.972;4.624;2023-02-14T08:04:27;103230.88;;;4.42;100.00
35151;BME280;55720;51.972;4.624;2023-02-14T08:06:56;103273.78;;;4.28;100.00
35151;BME280;55720;51.972;4.624;2023-02-14T08:09:23;103313.56;;;3.14;100.00
35151;BME280;55720;51.972;4.624;2023-02-14T08:11:53;103319.84;;;3.14;100.00
35151;BME280;55720;51.972;4.624;2023-02-14T08:14:38;103305.63;;;4.81;100.00
35151;BME280;55720;51.972;4.624;2023-02-14T08:17:08;103314.66;;;5.39;100.00
35151;BME280;55720;51.972;4.624;2023-02-14T08:19:35;103325.22;;;5.24;100.00
35151;BME280;55720;51.972;4.624;2023-02-14T08:22:02;103348.53;;;5.20;100.00
35151;BME280;55720;51.972;4.624;2023-02-14T08:24:31;103411.41;;;3.93;100.00
35151;BME280;55720;51.972;4.624;2023-02-14T08:26:59;103420.50;;;4.05;100.00
35151;BME280;55720;51.972;4.624;2023-02-14T08:29:28;103423.13;;;3.93;100.00
35151;BME280;55720;51.972;4.624;2023-02-14T08:31:56;103433.81;;;3.88;100.00
35151;BME280;55720;51.972;4.624;2023-02-14T08:34:27;103410.94;;;3.78;100.00
35151;BME280;55720;51.972;4.624;2023-02-14T08:36:53;103434.94;;;3.81;100.00
35151;BME280;55720;51.972;4.624;2023-02-14T08:39:19;103448.22;;;3.71;100.00
35151;BME280;55720;51.972;4.624;2023-02-14T08:41:44;103443.03;;;3.87;100.00
35151;BME280;55720;51.972;4.624;2023-02-14T08:44:16;103451.28;;;3.99;100.00
35151;BME280;55720;51.972;4.624;2023-02-14T08:46:45;103458.00;;;4.15;100.00
35151;BME280;55720;51.972;4.624;2023-02-14T08:49:13;103466.75;;;3.98;100.00
35151;BME280;55720;51.972;4.624;2023-02-14T08:51:39;103463.59;;;4.38;100.00
35151;BME280;55720;51.972;4.624;2023-02-14T08:54:04;103471.91;;;4.61;100.00
35151;BME280;55720;51.972;4.624;2023-02-14T08:56:30;103470.75;;;4.69;100.00
35151;BME280;55720;51.972;4.624;2023-02-14T08:58:55;103471.94;;;4.91;100.00
35151;BME280;55720;51.972;4.624;2023-02-14T09:01:21;103480.88;;;4.80;100.00
35151;BME280;55720;51.972;4.624;2023-02-14T09:03:47;103491.47;;;5.00;100.00
35151;BME280;55720;51.972;4.624;2023-02-14T09:06:15;103503.59;;;5.04;100.00
35151;BME280;55720;51.972;4.624;2023-02-14T09:08:42;103506.50;;;4.90;100.00
35151;BME280;55720;51.972;4.624;2023-02-14T09:11:17;103508.44;;;5.02;100.00
35151;BME280;55720;51.972;4.624;2023-02-14T09:13:44;103508.81;;;5.05;100.00
35151;BME280;55720;51.972;4.624;2023-02-14T09:16:12;103517.19;;;5.04;100.00
35151;BME280;55720;51.972;4.624;2023-02-14T09:18:37;103524.84;;;5.13;100.00
35151;BME280;55720;51.972;4.624;2023-02-14T09:21:12;103533.16;;;5.00;100.00
35151;BME280;55720;51.972;4.624;2023-02-14T09:23:38;103546.69;;;5.07;100.00
35151;BME280;55720;51.972;4.624;2023-02-14T09:26:06;103574.38;;;5.04;100.00
35151;BME280;55720;51.972;4.624;2023-02-14T09:28:32;103580.25;;;5.19;100.00
35151;BME280;55720;51.972;4.624;2023-02-14T09:31:13;103598.41;;;5.25;100.00
35151;BME280;55720;51.972;4.624;2023-02-14T09:33:40;103614.34;;;5.39;100.00
35151;BME280;55720;51.972;4.624;2023-02-14T09:36:06;103623.22;;;5.35;100.00
35151;BME280;55720;51.972;4.624;2023-02-14T09:38:43;103626.28;;;5.57;100.00
35151;BME280;55720;51.972;4.624;2023-02-14T09:43:59;103639.16;;;5.79;100.00
35151;BME280;55720;51.972;4.624;2023-02-14T09:46:27;103654.09;;;5.77;100.00
35151;BME280;55720;51.972;4.624;2023-02-14T09:48:54;103662.56;;;5.87;100.00
35151;BME280;55720;51.972;4.624;2023-02-14T09:51:23;103681.00;;;6.03;100.00
35151;BME280;55720;51.972;4.624;2023-02-14T09:56:23;103708.38;;;6.50;100.00
35151;BME280;55720;51.972;4.624;2023-02-14T09:59:05;103715.31;;;6.75;100.00
35151;BME280;55720;51.972;4.624;2023-02-14T10:01:39;103735.50;;;6.98;100.00
35151;BME280;55720;51.972;4.624;2023-02-14T10:12:29;103750.00;;;8.01;100.00
35151;BME280;55720;51.972;4.624;2023-02-14T10:14:59;103738.16;;;8.12;100.00
35151;BME280;55720;51.972;4.624;2023-02-14T10:17:48;103713.72;;;8.22;100.00
35151;BME280;55720;51.972;4.624;2023-02-14T10:25:53;103546.94;;;8.71;100.00
35151;BME280;55720;51.972;4.624;2023-02-14T10:28:29;103493.72;;;8.88;100.00
35151;BME280;55720;51.972;4.624;2023-02-14T10:33:37;103275.59;;;9.19;100.00
35151;BME280;55720;51.972;4.624;2023-02-14T10:36:30;103203.63;;;9.39;100.00
35151;BME280;55720;51.972;4.624;2023-02-14T10:52:35;102700.63;;;10.29;100.00
35151;BME280;55720;51.972;4.624;2023-02-14T10:55:04;102621.31;;;10.57;100.00
35151;BME280;55720;51.972;4.624;2023-02-14T10:57:54;102553.88;;;10.93;100.00
35151;BME280;55720;51.972;4.624;2023-02-14T11:00:25;102560.56;;;10.87;100.00
35151;BME280;55720;51.972;4.624;2023-02-14T11:03:00;102550.84;;;10.95;100.00
35151;BME280;55720;51.972;4.624;2023-02-14T11:05:44;102575.69;;;11.08;100.00
35151;BME280;55720;51.972;4.624;2023-02-14T11:08:32;102602.44;;;11.03;100.00
35151;BME280;55720;51.972;4.624;2023-02-14T11:13:40;102635.28;;;11.36;100.00
35151;BME280;55720;51.972;4.624;2023-02-14T11:16:11;102658.56;;;11.44;100.00
35151;BME280;55720;51.972;4.624;2023-02-14T11:18:40;102674.69;;;11.51;100.00
35151;BME280;55720;51.972;4.624;2023-02-14T11:21:11;102690.50;;;11.64;100.00
35151;BME280;55720;51.972;4.624;2023-02-14T11:23:44;102726.69;;;11.52;100.00
35151;BME280;55720;51.972;4.624;2023-02-14T11:26:22;102741.78;;;11.31;100.00
35151;BME280;55720;51.972;4.624;2023-02-14T11:29:03;102743.50;;;11.22;100.00
35151;BME280;55720;51.972;4.624;2023-02-14T11:31:39;102742.69;;;11.50;100.00
35151;BME280;55720;51.972;4.624;2023-02-14T11:36:47;102752.41;;;11.61;100.00
35151;BME280;55720;51.972;4.624;2023-02-14T11:39:30;102750.41;;;11.96;100.00
35151;BME280;55720;51.972;4.624;2023-02-14T11:42:00;102762.16;;;12.20;100.00
35151;BME280;55720;51.972;4.624;2023-02-14T11:44:28;102764.03;;;12.24;100.00
35151;BME280;55720;51.972;4.624;2023-02-14T11:46:56;102760.47;;;12.24;100.00
35151;BME280;55720;51.972;4.624;2023-02-14T11:49:28;102751.97;;;12.58;100.00
35151;BME280;55720;51.972;4.624;2023-02-14T11:51:55;102770.38;;;12.62;100.00
35151;BME280;55720;51.972;4.624;2023-02-14T11:57:01;102802.41;;;12.40;100.00
35151;BME280;55720;51.972;4.624;2023-02-14T11:59:31;102815.47;;;11.87;100.00
35151;BME280;55720;51.972;4.624;2023-02-14T12:02:00;102806.50;;;12.00;100.00
35151;BME280;55720;51.972;4.624;2023-02-14T12:04:34;102787.81;;;12.39;100.00
35151;BME280;55720;51.972;4.624;2023-02-14T12:07:16;102790.44;;;12.81;100.00
35151;BME280;55720;51.972;4.624;2023-02-14T12:09:45;102810.34;;;12.78;100.00
35151;BME280;55720;51.972;4.624;2023-02-14T12:12:29;102821.53;;;12.87;100.00
35151;BME280;55720;51.972;4.624;2023-02-14T12:15:17;102837.75;;;12.89;100.00
35151;BME280;55720;51.972;4.624;2023-02-14T12:17:49;102851.69;;;12.97;100.00
35151;BME280;55720;51.972;4.624;2023-02-14T12:20:25;102854.28;;;13.26;100.00
35151;BME280;55720;51.972;4.624;2023-02-14T12:23:23;102862.53;;;13.45;100.00
35151;BME280;55720;51.972;4.624;2023-02-14T12:25:58;102872.06;;;13.52;100.00
35151;BME280;55720;51.972;4.624;2023-02-14T12:28:30;102899.66;;;12.77;100.00
35151;BME280;55720;51.972;4.624;2023-02-14T12:31:07;102901.00;;;12.99;100.00
35151;BME280;55720;51.972;4.624;2023-02-14T12:33:33;102899.41;;;12.98;100.00
35151;BME280;55720;51.972;4.624;2023-02-14T12:44:18;102924.13;;;13.72;100.00
35151;BME280;55720;51.972;4.624;2023-02-14T12:52:53;102918.28;;;13.09;100.00
35151;BME280;55720;51.972;4.624;2023-02-14T12:55:35;102898.72;;;13.24;100.00
35151;BME280;55720;51.972;4.624;2023-02-14T12:58:32;102905.28;;;13.28;100.00
35151;BME280;55720;51.972;4.624;2023-02-14T13:09:55;102907.44;;;13.31;100.00
35151;BME280;55720;51.972;4.624;2023-02-14T13:12:57;102891.66;;;13.51;100.00
35151;BME280;55720;51.972;4.624;2023-02-14T13:15:43;102880.78;;;13.73;100.00
35151;BME280;55720;51.972;4.624;2023-02-14T13:21:09;102877.72;;;13.88;100.00
35151;BME280;55720;51.972;4.624;2023-02-14T13:23:39;102882.22;;;13.98;100.00
35151;BME280;55720;51.972;4.624;2023-02-14T13:26:10;102890.88;;;13.64;100.00
35151;BME280;55720;51.972;4.624;2023-02-14T13:28:37;102876.09;;;13.87;100.00
35151;BME280;55720;51.972;4.624;2023-02-14T13:31:04;102896.06;;;13.19;100.00
35151;BME280;55720;51.972;4.624;2023-02-14T13:33:36;102885.88;;;13.34;100.00
35151;BME280;55720;51.972;4.624;2023-02-14T13:36:08;102887.13;;;13.87;100.00
35151;BME280;55720;51.972;4.624;2023-02-14T13:38:43;102883.47;;;14.05;100.00
35151;BME280;55720;51.972;4.624;2023-02-14T13:41:10;102894.28;;;13.74;100.00
35151;BME280;55720;51.972;4.624;2023-02-14T13:46:13;102895.56;;;14.50;100.00
35151;BME280;55720;51.972;4.624;2023-02-14T13:48:39;102895.97;;;14.44;100.00
35151;BME280;55720;51.972;4.624;2023-02-14T13:51:09;102900.25;;;14.63;100.00
35151;BME280;55720;51.972;4.624;2023-02-14T13:53:38;102914.59;;;14.52;100.00
35151;BME280;55720;51.972;4.624;2023-02-14T14:04:04;102953.28;;;14.24;100.00
35151;BME280;55720;51.972;4.624;2023-02-14T14:17:35;102983.06;;;14.27;100.00
35151;BME280;55720;51.972;4.624;2023-02-14T14:22:56;102996.00;;;14.00;100.00
35151;BME280;55720;51.972;4.624;2023-02-14T14:25:31;103006.47;;;14.16;100.00
35151;BME280;55720;51.972;4.624;2023-02-14T14:27:57;103014.22;;;14.14;100.00
35151;BME280;55720;51.972;4.624;2023-02-14T14:30:30;103007.09;;;14.27;100.00
35151;BME280;55720;51.972;4.624;2023-02-14T14:33:26;103011.44;;;14.01;100.00
35151;BME280;55720;51.972;4.624;2023-02-14T14:36:05;103029.63;;;13.88;100.00
35151;BME280;55720;51.972;4.624;2023-02-14T14:38:32;103039.81;;;14.06;100.00
35151;BME280;55720;51.972;4.624;2023-02-14T14:40:59;103052.88;;;13.82;100.00
35151;BME280;55720;51.972;4.624;2023-02-14T14:43:26;103070.66;;;13.57;100.00
35151;BME280;55720;51.972;4.624;2023-02-14T14:45:53;103079.63;;;13.49;100.00
35151;BME280;55720;51.972;4.624;2023-02-14T14:48:32;103079.53;;;13.36;100.00
35151;BME280;55720;51.972;4.624;2023-02-14T14:51:03;103082.84;;;13.38;100.00
35151;BME280;55720;51.972;4.624;2023-02-14T14:53:42;103090.13;;;13.28;100.00
35151;BME280;55720;51.972;4.624;2023-02-14T14:56:18;103093.41;;;13.07;100.00
35151;BME280;55720;51.972;4.624;2023-02-14T14:58:44;103094.03;;;12.99;100.00
35151;BME280;55720;51.972;4.624;2023-02-14T15:01:11;103093.69;;;12.81;100.00
35151;BME280;55720;51.972;4.624;2023-02-14T15:03:39;103091.41;;;12.65;100.00
35151;BME280;55720;51.972;4.624;2023-02-14T15:06:18;103080.53;;;12.50;100.00
35151;BME280;55720;51.972;4.624;2023-02-14T15:08:45;103075.00;;;12.26;100.00
35151;BME280;55720;51.972;4.624;2023-02-14T15:11:18;103073.22;;;12.06;100.00
35151;BME280;55720;51.972;4.624;2023-02-14T15:14:12;103062.09;;;11.88;100.00